createdAt,value
2022-10-12T00:01:05.760Z,99042.56
2022-10-12T00:04:07.262Z,99045.16
2022-10-12T00:07:08.619Z,99053.06
2022-10-12T00:10:09.953Z,99057.44
2022-10-12T00:13:11.370Z,99051.31
2022-10-12T00:16:12.940Z,99043.47
2022-10-12T00:19:14.377Z,99048.69
2022-10-12T00:22:16.072Z,99046.09
2022-10-12T00:25:17.422Z,99047.84
2022-10-12T00:28:18.959Z,99046.97
2022-10-12T00:31:20.770Z,99043.47
2022-10-12T00:34:22.119Z,99043.47
2022-10-12T00:37:23.476Z,99049.56
2022-10-12T00:40:24.825Z,99048.63
2022-10-12T00:43:27.077Z,99048.63
2022-10-12T00:46:31.421Z,99048.66
2022-10-12T00:49:32.844Z,99050.34
2022-10-12T00:52:47.221Z,99048.59
2022-10-12T00:55:49.111Z,99047.69
2022-10-12T00:58:50.470Z,99044.19
2022-10-12T01:01:51.862Z,99055.50
2022-10-12T01:04:53.412Z,99045.88
2022-10-12T01:07:54.763Z,99045.88
2022-10-12T01:10:56.172Z,99049.38
2022-10-12T01:13:57.856Z,99048.47
2022-10-12T01:17:12.589Z,99058.03
2022-10-12T01:20:23.024Z,99058.06
2022-10-12T01:23:46.604Z,99053.66
2022-10-12T01:26:57.141Z,99054.47
2022-10-12T01:30:15.017Z,99057.06
2022-10-12T01:33:28.475Z,99044.91
2022-10-12T01:36:33.516Z,99046.63
2022-10-12T01:39:35.619Z,99051.84
2022-10-12T01:42:40.332Z,99049.19
2022-10-12T01:45:41.731Z,99042.22
2022-10-12T01:48:43.561Z,99039.63
2022-10-12T01:51:57.132Z,99042.19
2022-10-12T01:54:58.421Z,99040.47
2022-10-12T01:58:04.367Z,99040.47
2022-10-12T02:01:16.336Z,99036.97
2022-10-12T02:04:18.955Z,99046.53
2022-10-12T02:07:22.388Z,99049.16
2022-10-12T02:10:28.082Z,99043.00
2022-10-12T02:13:30.383Z,99037.78
2022-10-12T02:16:32.888Z,99038.59
2022-10-12T02:19:38.491Z,99037.69
2022-10-12T02:22:39.865Z,99029.88
2022-10-12T02:25:41.275Z,99035.09
2022-10-12T02:28:42.731Z,99033.34
2022-10-12T02:31:47.229Z,99030.72
2022-10-12T02:34:50.866Z,99031.63
2022-10-12T02:37:54.125Z,99024.69
2022-10-12T02:40:56.383Z,99023.84
2022-10-12T02:44:01.226Z,99023.84
2022-10-12T02:47:02.849Z,99026.38
2022-10-12T02:50:04.307Z,99020.28
2022-10-12T02:53:05.720Z,99019.44
2022-10-12T02:56:08.476Z,99020.28
2022-10-12T02:59:09.816Z,99015.94
2022-10-12T03:02:11.361Z,99010.69
2022-10-12T03:05:12.693Z,99015.84
2022-10-12T03:08:14.043Z,99016.72
2022-10-12T03:11:15.522Z,99017.56
2022-10-12T03:14:17.477Z,99012.22
2022-10-12T03:17:18.814Z,99008.72
2022-10-12T03:20:20.232Z,99014.72
2022-10-12T03:23:21.546Z,99008.59
2022-10-12T03:26:23.193Z,99009.44
2022-10-12T03:29:24.616Z,99009.44
2022-10-12T03:32:25.976Z,99008.53
2022-10-12T03:35:27.351Z,99014.63
2022-10-12T03:38:28.860Z,99014.63
2022-10-12T03:41:30.416Z,99008.56
2022-10-12T03:44:31.744Z,99019.91
2022-10-12T03:47:33.064Z,99012.00
2022-10-12T03:50:35.055Z,99018.97
2022-10-12T03:53:36.433Z,99022.28
2022-10-12T03:56:37.837Z,99026.59
2022-10-12T03:59:39.197Z,99023.03
2022-10-12T04:02:40.592Z,99021.25
2022-10-12T04:05:41.982Z,99024.69
2022-10-12T04:08:46.014Z,99021.13
2022-10-12T04:11:51.121Z,99024.63
2022-10-12T04:14:52.540Z,99022.84
2022-10-12T04:17:53.870Z,99021.94
2022-10-12T04:20:55.210Z,99028.84
2022-10-12T04:23:56.545Z,99023.50
2022-10-12T04:26:57.882Z,99033.03
2022-10-12T04:29:59.246Z,99038.22
2022-10-12T04:33:00.605Z,99041.63
2022-10-12T04:36:01.934Z,99042.44
2022-10-12T04:39:03.292Z,99045.84
2022-10-12T04:42:04.743Z,99043.19
2022-10-12T04:45:06.294Z,99043.19
2022-10-12T04:48:07.635Z,99050.97
2022-10-12T04:51:09.719Z,99053.59
2022-10-12T04:54:11.242Z,99052.72
2022-10-12T04:57:12.607Z,99048.31
2022-10-12T05:00:14.149Z,99050.94
2022-10-12T05:03:15.717Z,99046.56
2022-10-12T05:06:17.109Z,99044.81
2022-10-12T05:09:18.484Z,99043.78
2022-10-12T05:12:19.802Z,99052.44
2022-10-12T05:15:21.378Z,99054.16
2022-10-12T05:18:22.777Z,99050.69
2022-10-12T05:21:24.186Z,99058.56
2022-10-12T05:24:25.630Z,99059.44
2022-10-12T05:27:27.050Z,99060.41
2022-10-12T05:30:28.395Z,99057.88
2022-10-12T05:33:29.968Z,99063.19
2022-10-12T05:36:31.369Z,99057.19
2022-10-12T05:39:32.722Z,99060.69
2022-10-12T05:42:37.173Z,99056.41
2022-10-12T05:45:38.675Z,99050.38
2022-10-12T05:48:39.990Z,99057.38
2022-10-12T05:51:41.400Z,99054.81
2022-10-12T05:54:42.742Z,99054.06
2022-10-12T05:57:47.315Z,99056.66
2022-10-12T06:00:51.066Z,99053.22
2022-10-12T06:03:54.551Z,99049.81
2022-10-12T06:06:55.904Z,99042.09
2022-10-12T06:10:03.747Z,99048.97
2022-10-12T06:13:05.495Z,99054.19
2022-10-12T06:16:07.173Z,99055.09
2022-10-12T06:19:10.398Z,99052.53
2022-10-12T06:22:11.752Z,99054.38
2022-10-12T06:25:13.109Z,99056.16
2022-10-12T06:28:17.920Z,99049.25
2022-10-12T06:31:19.321Z,99051.88
2022-10-12T06:34:20.924Z,99048.50
2022-10-12T06:37:47.831Z,99046.00
2022-10-12T06:40:43.688Z,99039.13
2022-10-12T06:43:45.097Z,99038.31
2022-10-12T06:46:46.630Z,99048.81
2022-10-12T06:49:48.017Z,99047.97
2022-10-12T06:52:49.373Z,99053.22
2022-10-12T06:55:50.705Z,99058.53
2022-10-12T06:58:55.702Z,99047.28
2022-10-12T07:01:57.083Z,99056.03
2022-10-12T07:04:58.478Z,99054.38
2022-10-12T07:07:59.802Z,99050.06
2022-10-12T07:11:04.539Z,99055.31
2022-10-12T07:14:05.932Z,99057.13
2022-10-12T07:17:07.467Z,99059.69
2022-10-12T07:20:08.862Z,99067.53
2022-10-12T07:23:10.176Z,99067.63
2022-10-12T07:26:11.596Z,99074.63
2022-10-12T07:29:12.949Z,99073.78
2022-10-12T07:32:14.295Z,99080.81
2022-10-12T07:35:15.638Z,99088.69
2022-10-12T07:38:16.972Z,99100.88
2022-10-12T07:41:18.414Z,99100.03
2022-10-12T07:44:19.869Z,99099.16
2022-10-12T07:47:21.223Z,99110.53
2022-10-12T07:50:22.678Z,99100.13
2022-10-12T07:53:24.043Z,99105.38
2022-10-12T07:56:25.366Z,99107.13
2022-10-12T07:59:26.800Z,99111.50
2022-10-12T08:02:28.113Z,99120.22
2022-10-12T08:05:29.519Z,99121.97
2022-10-12T08:08:30.861Z,99135.94
2022-10-12T08:11:32.255Z,99131.53
2022-10-12T08:14:33.603Z,99132.44
2022-10-12T08:17:34.931Z,99132.44
2022-10-12T08:20:38.913Z,99131.56
2022-10-12T08:23:40.283Z,99135.88
2022-10-12T08:26:41.664Z,99135.88
2022-10-12T08:29:43.030Z,99137.59
2022-10-12T08:32:44.397Z,99137.59
2022-10-12T08:35:45.870Z,99141.88
2022-10-12T08:38:50.486Z,99144.41
2022-10-12T08:41:54.825Z,99146.59
2022-10-12T08:45:15.177Z,99156.84
2022-10-12T08:48:17.882Z,99150.94
2022-10-12T08:51:20.283Z,99158.44
2022-10-12T08:54:26.215Z,99155.56
2022-10-12T08:57:27.591Z,99159.06
2022-10-12T09:00:29.000Z,99155.41
2022-10-12T09:03:38.305Z,99156.31
2022-10-12T09:06:40.578Z,99158.75
2022-10-12T09:09:48.076Z,99159.78
2022-10-12T09:12:58.550Z,99158.75
2022-10-12T09:16:00.560Z,99153.59
2022-10-12T09:19:03.611Z,99154.72
2022-10-12T09:22:05.261Z,99161.22
2022-10-12T09:25:06.785Z,99158.09
2022-10-12T09:28:21.244Z,99148.28
2022-10-12T09:31:33.335Z,99160.84
2022-10-12T09:34:34.812Z,99153.03
2022-10-12T09:37:36.536Z,99162.81
2022-10-12T09:40:37.922Z,99168.66
2022-10-12T09:43:39.380Z,99167.28
2022-10-12T09:46:41.885Z,99166.53
2022-10-12T09:49:44.035Z,99169.94
2022-10-12T09:52:45.375Z,99154.84
2022-10-12T09:55:53.456Z,99160.25
2022-10-12T09:58:56.280Z,99155.97
2022-10-12T10:02:05.155Z,99149.16
2022-10-12T10:05:14.537Z,99154.28
2022-10-12T10:08:19.863Z,99142.16
2022-10-12T10:11:26.074Z,99150.88
2022-10-12T10:14:35.143Z,99144.31
2022-10-12T10:17:36.493Z,99139.63
2022-10-12T10:20:49.800Z,99135.22
2022-10-12T10:23:51.950Z,99131.47
2022-10-12T10:27:03.561Z,99137.03
2022-10-12T10:30:29.257Z,99141.72
2022-10-12T10:33:30.668Z,99144.81
2022-10-12T10:36:39.531Z,99148.50
2022-10-12T10:39:48.022Z,99152.44
2022-10-12T10:42:49.936Z,99148.75
2022-10-12T10:45:58.781Z,99153.63
2022-10-12T10:49:02.075Z,99156.91
2022-10-12T10:52:04.012Z,99146.72
2022-10-12T10:55:25.611Z,99140.34
2022-10-12T10:58:32.233Z,99141.66
2022-10-12T11:01:57.172Z,99141.34
2022-10-12T11:05:10.946Z,99137.06
2022-10-12T11:08:13.221Z,99143.38
2022-10-12T11:11:15.720Z,99138.34
2022-10-12T11:14:21.255Z,99147.00
2022-10-12T11:17:28.243Z,99135.47
2022-10-12T11:20:50.263Z,99137.28
2022-10-12T11:23:52.254Z,99140.56
2022-10-12T11:27:16.952Z,99136.47
2022-10-12T11:30:22.338Z,99121.56
2022-10-12T11:33:24.597Z,99124.97
2022-10-12T11:36:26.352Z,99116.97
2022-10-12T11:39:27.687Z,99111.97
2022-10-12T11:42:43.659Z,99111.38
2022-10-12T11:45:47.219Z,99108.44
2022-10-12T11:48:51.693Z,99108.28
2022-10-12T11:51:53.908Z,99111.78
2022-10-12T11:54:58.264Z,99101.34
2022-10-12T11:58:00.863Z,99093.72
2022-10-12T12:01:05.290Z,99093.09
2022-10-12T12:04:41.344Z,99094.47
2022-10-12T12:07:47.251Z,99090.31
2022-10-12T12:11:08.599Z,99090.75
2022-10-12T12:14:25.423Z,99081.31
2022-10-12T12:17:31.704Z,99088.50
2022-10-12T12:20:43.082Z,99086.06
2022-10-12T12:23:56.490Z,99083.22
2022-10-12T12:26:57.853Z,99076.59
2022-10-12T12:30:03.709Z,99077.31
2022-10-12T12:33:06.355Z,99065.31
2022-10-12T12:36:08.384Z,99063.34
2022-10-12T12:39:20.165Z,99063.47
2022-10-12T12:42:22.109Z,99060.09
2022-10-12T12:45:32.545Z,99059.84
2022-10-12T12:48:42.894Z,99060.03
2022-10-12T12:51:44.232Z,99058.06
2022-10-12T12:54:57.960Z,99058.97
2022-10-12T12:58:08.601Z,99048.31
2022-10-12T13:01:33.010Z,99052.47
2022-10-12T13:04:40.567Z,99053.78
2022-10-12T13:07:48.076Z,99041.16
2022-10-12T13:10:53.651Z,99037.56
2022-10-12T13:13:57.912Z,99029.59
2022-10-12T13:17:32.409Z,99031.66
2022-10-12T13:20:31.228Z,99032.44
2022-10-12T13:23:32.662Z,99042.59
2022-10-12T13:26:33.981Z,99042.03
2022-10-12T13:29:36.627Z,99033.97
2022-10-12T13:32:37.912Z,99033.78
2022-10-12T13:35:41.179Z,99030.53
2022-10-12T13:38:42.562Z,99022.13
2022-10-12T13:41:43.984Z,99025.38
2022-10-12T13:44:46.053Z,99025.50
2022-10-12T13:47:47.405Z,99032.53
2022-10-12T13:50:52.659Z,99031.88
2022-10-12T13:53:53.992Z,99027.84
2022-10-12T13:56:56.508Z,99031.03
2022-10-12T14:00:17.932Z,99025.03
2022-10-12T14:03:23.039Z,99028.28
2022-10-12T14:06:26.236Z,99025.75
2022-10-12T14:09:28.445Z,99026.84
2022-10-12T14:12:30.354Z,99025.19
2022-10-12T14:15:32.484Z,99026.53
2022-10-12T14:18:35.469Z,99025.81
2022-10-12T14:21:37.045Z,99018.84
2022-10-12T14:24:38.437Z,99013.88
2022-10-12T14:27:39.842Z,99011.06
2022-10-12T14:30:49.778Z,99019.13
2022-10-12T14:33:51.198Z,99014.50
2022-10-12T14:37:06.303Z,99008.00
2022-10-12T14:40:26.071Z,99012.09
2022-10-12T14:43:27.586Z,99009.97
2022-10-12T14:46:29.507Z,99021.16
2022-10-12T14:49:40.890Z,99019.09
2022-10-12T14:52:42.184Z,99010.66
2022-10-12T14:55:43.683Z,99010.34
2022-10-12T14:58:45.049Z,99006.22
2022-10-12T15:01:51.276Z,99013.09
2022-10-12T15:04:52.981Z,99011.56
2022-10-12T15:07:54.563Z,99006.00
2022-10-12T15:10:55.934Z,99008.66
2022-10-12T15:13:57.283Z,99009.50
2022-10-12T15:16:58.643Z,99007.91
2022-10-12T15:20:00.012Z,99008.03
2022-10-12T15:23:02.694Z,99008.00
2022-10-12T15:26:04.798Z,99011.56
2022-10-12T15:29:06.159Z,99009.97
2022-10-12T15:32:07.583Z,99017.97
2022-10-12T15:35:19.521Z,99012.97
2022-10-12T15:38:21.073Z,99018.41
2022-10-12T15:41:26.455Z,99014.38
2022-10-12T15:44:28.276Z,99004.09
2022-10-12T15:47:29.640Z,99007.75
2022-10-12T15:50:33.771Z,99006.13
2022-10-12T15:53:35.158Z,99005.41
2022-10-12T15:56:38.373Z,98995.09
2022-10-12T15:59:39.766Z,98995.97
2022-10-12T16:02:42.204Z,99002.25
2022-10-12T16:05:43.624Z,99007.69
2022-10-12T16:08:45.033Z,99009.50
2022-10-12T16:11:46.397Z,99007.00
2022-10-12T16:14:47.799Z,99009.00
2022-10-12T16:17:49.439Z,99012.66
2022-10-12T16:20:54.003Z,99013.75
2022-10-12T16:23:55.601Z,99008.56
2022-10-12T16:26:57.104Z,98999.88
2022-10-12T16:29:58.552Z,99009.63
2022-10-12T16:32:59.929Z,99000.06
2022-10-12T16:36:01.350Z,99000.19
2022-10-12T16:39:02.723Z,99001.25
2022-10-12T16:42:04.135Z,98997.91
2022-10-12T16:45:05.729Z,99005.97
2022-10-12T16:48:07.091Z,98998.31
2022-10-12T16:51:08.783Z,98993.94
2022-10-12T16:54:10.144Z,98998.47
2022-10-12T16:57:11.576Z,98997.81
2022-10-12T17:00:14.123Z,98985.78
2022-10-12T17:03:15.538Z,98988.63
2022-10-12T17:06:16.915Z,98992.22
2022-10-12T17:09:18.269Z,98992.31
2022-10-12T17:12:19.637Z,98993.38
2022-10-12T17:15:21.084Z,98983.88
2022-10-12T17:18:22.582Z,98988.31
2022-10-12T17:21:23.985Z,98981.47
2022-10-12T17:24:26.311Z,98981.50
2022-10-12T17:27:31.454Z,98992.91
2022-10-12T17:30:35.202Z,99007.94
2022-10-12T17:33:36.565Z,99001.84
2022-10-12T17:36:37.905Z,99007.16
2022-10-12T17:39:40.450Z,99011.53
2022-10-12T17:42:41.793Z,99019.44
2022-10-12T17:45:43.185Z,99016.88
2022-10-12T17:48:44.562Z,99016.97
2022-10-12T17:51:48.986Z,99018.75
2022-10-12T17:54:50.358Z,99019.69
2022-10-12T17:57:51.954Z,99011.00
2022-10-12T18:00:53.378Z,99014.50
2022-10-12T18:03:55.463Z,99013.63
2022-10-12T18:06:56.815Z,99018.88
2022-10-12T18:13:05.092Z,99021.56
2022-10-12T18:16:10.475Z,99017.19
2022-10-12T18:19:11.891Z,99012.84
2022-10-12T18:22:13.281Z,99007.63
2022-10-12T18:25:15.606Z,99015.50
2022-10-12T18:28:17.059Z,99009.41
2022-10-12T18:31:21.436Z,99006.81
2022-10-12T18:34:22.824Z,99006.84
2022-10-12T18:37:24.211Z,98998.13
2022-10-12T18:40:25.587Z,98990.28
2022-10-12T18:43:26.946Z,98991.13
2022-10-12T18:46:28.868Z,98993.75
2022-10-12T18:49:30.201Z,98996.38
2022-10-12T18:52:31.616Z,98998.09
2022-10-12T18:55:35.875Z,99002.50
2022-10-12T18:58:38.225Z,99004.25
2022-10-12T19:01:39.545Z,99003.38
2022-10-12T19:04:40.902Z,99007.72
2022-10-12T19:07:42.224Z,99000.75
2022-10-12T19:10:43.613Z,99002.50
2022-10-12T19:13:45.170Z,99011.19
2022-10-12T19:16:46.780Z,98998.97
2022-10-12T19:19:48.136Z,99001.56
2022-10-12T19:22:49.631Z,99001.56
2022-10-12T19:25:50.981Z,99006.78
2022-10-12T19:28:53.301Z,99005.91
2022-10-12T19:31:54.689Z,99018.13
2022-10-12T19:34:56.098Z,99017.25
2022-10-12T19:37:57.442Z,99010.28
2022-10-12T19:40:58.858Z,99014.63
2022-10-12T19:44:00.297Z,99020.72
2022-10-12T19:47:02.716Z,99024.19
2022-10-12T19:50:04.129Z,99020.72
2022-10-12T19:53:05.528Z,99032.06
2022-10-12T19:56:07.584Z,99031.16
2022-10-12T19:59:08.969Z,99033.78
2022-10-12T20:02:10.447Z,99030.25
2022-10-12T20:05:11.844Z,99029.41
2022-10-12T20:08:13.189Z,99036.38
2022-10-12T20:11:18.914Z,99037.22
2022-10-12T20:14:21.282Z,99038.94
2022-10-12T20:17:22.623Z,99044.16
2022-10-12T20:20:23.998Z,99046.78
2022-10-12T20:23:25.316Z,99047.66
2022-10-12T20:26:26.743Z,99033.72
2022-10-12T20:29:28.090Z,99037.19
2022-10-12T20:32:29.452Z,99038.03
2022-10-12T20:35:30.864Z,99033.72
2022-10-12T20:38:32.201Z,99021.47
2022-10-12T20:41:33.613Z,99026.69
2022-10-12T20:44:34.990Z,99015.38
2022-10-12T20:47:36.352Z,99015.38
2022-10-12T20:50:38.141Z,99004.91
2022-10-12T20:53:39.506Z,99008.41
2022-10-12T20:56:40.929Z,99010.16
2022-10-12T20:59:45.004Z,99007.56
2022-10-12T21:02:46.399Z,99008.44
2022-10-12T21:05:47.780Z,98999.75
2022-10-12T21:08:49.788Z,99010.25
2022-10-12T21:11:51.161Z,99020.72
2022-10-12T21:14:52.555Z,99024.22
2022-10-12T21:17:53.909Z,99019.88
2022-10-12T21:20:55.797Z,99017.28
2022-10-12T21:23:57.842Z,99013.78
2022-10-12T21:26:59.210Z,99017.28
2022-10-12T21:30:00.574Z,99010.31
2022-10-12T21:33:01.926Z,99003.38
2022-10-12T21:36:07.631Z,99008.63
2022-10-12T21:39:12.996Z,99012.13
2022-10-12T21:42:14.346Z,99009.50
2022-10-12T21:45:15.707Z,99006.84
2022-10-12T21:48:17.058Z,98998.16
2022-10-12T21:51:18.802Z,99008.63
2022-10-12T21:54:20.173Z,99002.50
2022-10-12T21:57:21.614Z,99003.41
2022-10-12T22:00:22.971Z,98999.00
2022-10-12T22:03:24.338Z,98997.28
2022-10-12T22:06:26.397Z,99001.63
2022-10-12T22:09:27.735Z,98993.81
2022-10-12T22:12:30.092Z,98990.31
2022-10-12T22:15:31.441Z,98991.16
2022-10-12T22:18:32.893Z,98996.41
2022-10-12T22:21:34.593Z,98986.84
2022-10-12T22:24:36.040Z,98981.59
2022-10-12T22:27:37.374Z,98990.31
2022-10-12T22:30:38.998Z,98985.97
2022-10-12T22:33:40.382Z,98993.78
2022-10-12T22:36:43.351Z,98992.94
2022-10-12T22:39:44.827Z,98990.31
2022-10-12T22:42:46.188Z,98992.94
2022-10-12T22:45:47.538Z,98990.31
2022-10-12T22:48:48.922Z,98990.31
2022-10-12T22:51:50.363Z,98972.03
2022-10-12T22:54:51.752Z,98967.66
2022-10-12T22:57:53.112Z,98964.19
2022-10-12T23:01:01.214Z,98965.91
2022-10-12T23:04:02.897Z,98959.81
2022-10-12T23:07:04.247Z,98971.13
2022-10-12T23:10:05.804Z,98961.56
2022-10-12T23:13:07.149Z,98957.19
2022-10-12T23:16:12.472Z,98959.81
2022-10-12T23:19:13.855Z,98953.72
2022-10-12T23:22:15.344Z,98958.94
2022-10-12T23:25:16.897Z,98964.13
2022-10-12T23:28:18.294Z,98965.91
2022-10-12T23:31:20.529Z,98971.13
2022-10-12T23:34:21.894Z,98965.88
2022-10-12T23:37:23.356Z,98970.22
2022-10-12T23:40:24.699Z,98978.09
2022-10-12T23:43:26.785Z,98968.47
2022-10-12T23:46:28.200Z,98971.09
2022-10-12T23:49:29.588Z,98965.00
2022-10-12T23:52:31.056Z,98965.88
2022-10-12T23:55:32.677Z,98965.84
2022-10-12T23:58:34.245Z,98965.84
